logo
Search for airport 
image banner adimage banner adimage banner ad
image banner ad

SHCH - Agroforestal

Located in Colina, Chile

ICAO - , IATA -

Data provided by Airmate  

General information

Coordinates: S33°13'16" W70°45'35"
Elevation is 1690 feet MSL.
 
View others Airports in Santiago Metropolitan Region

Operational data

Special qualification required
Current time UTC:
Current local time:
Weather at : SCEL - Arturo Merino Benitez ( 20 km )
METAR: SCEL 232100Z 23003KT 150V320 8000 BKN020 BKN030 11/06 Q1023 NOSIG
TAF: TAF SCEL 231600Z 2318/2418 19008KT 7000 SCT020 BKN030 BKN170 TX13/2319Z TN01/2410Z BECMG 2322/2400 SCT030 SCT050 BKN200 BECMG 2401/2403 15004KT FEW030 SCT160 BECMG 2406/2408 NSC TEMPO 2408/2414 5000 BR BECMG 2416/2418 22007KT
View NOTAMs / SUP AIP / TFR affecting this airport [VIEW]
Communications frequencies: [VIEW]

Runways:

Airport contact information

Address: Colina Chile

Satellite view of SHCH